createdAt,value
2023-01-13T05:00:24.062Z,100680.75
2023-01-13T05:03:26.815Z,100675.44
2023-01-13T05:06:29.591Z,100682.53
2023-01-13T05:09:32.016Z,100684.66
2023-01-13T05:12:52.621Z,100677.28
2023-01-13T05:16:13.783Z,100681.69
2023-01-13T05:19:15.963Z,100691.53
2023-01-13T05:22:37.126Z,100689.16
2023-01-13T05:25:42.854Z,100705.06
2023-01-13T05:28:46.535Z,100703.44
2023-01-13T05:31:48.660Z,100707.97
2023-01-13T05:34:51.294Z,100716.13
2023-01-13T05:37:55.025Z,100707.91
2023-01-13T05:41:18.389Z,100707.50
2023-01-13T05:44:20.752Z,100700.31
2023-01-13T05:47:23.187Z,100700.06
2023-01-13T05:50:25.395Z,100701.97
2023-01-13T05:53:28.366Z,100702.91
2023-01-13T05:56:30.539Z,100707.84
2023-01-13T05:59:32.962Z,100700.16
2023-01-13T06:02:35.089Z,100700.00
2023-01-13T06:05:37.718Z,100703.97
2023-01-13T06:08:40.205Z,100708.16
2023-01-13T06:11:42.634Z,100709.19
2023-01-13T06:14:44.800Z,100705.50
2023-01-13T06:17:47.785Z,100701.75
2023-01-13T06:20:50.998Z,100704.84
2023-01-13T06:23:53.418Z,100707.09
2023-01-13T06:26:55.594Z,100712.59
2023-01-13T06:29:58.283Z,100710.47
2023-01-13T06:33:05.662Z,100710.00
2023-01-13T06:36:27.532Z,100707.50
2023-01-13T06:39:31.256Z,100712.75
2023-01-13T06:42:55.632Z,100719.50
2023-01-13T06:45:57.804Z,100723.25
2023-01-13T06:49:00.187Z,100723.78
2023-01-13T06:52:02.401Z,100722.25
2023-01-13T06:55:05.199Z,100724.91
2023-01-13T06:58:07.458Z,100726.03
2023-01-13T07:01:09.955Z,100727.72
2023-01-13T07:04:12.260Z,100728.06
2023-01-13T07:07:14.719Z,100725.31
2023-01-13T07:10:22.182Z,100720.81
2023-01-13T07:13:43.113Z,100731.97
2023-01-13T07:16:45.204Z,100730.09
2023-01-13T07:19:47.576Z,100729.59
2023-01-13T07:22:54.973Z,100722.13
2023-01-13T07:25:58.634Z,100725.31
2023-01-13T07:29:00.974Z,100720.38
2023-01-13T07:32:03.411Z,100722.16
2023-01-13T07:35:06.315Z,100725.31
2023-01-13T07:38:08.828Z,100717.00
2023-01-13T07:41:33.297Z,100725.41
2023-01-13T07:44:35.731Z,100727.31
2023-01-13T07:47:38.127Z,100724.22
2023-01-13T07:50:42.119Z,100732.44
2023-01-13T07:53:46.057Z,100732.50
2023-01-13T07:56:48.465Z,100730.66
2023-01-13T07:59:50.555Z,100741.06
2023-01-13T08:02:53.019Z,100748.31
2023-01-13T08:05:55.493Z,100746.38
2023-01-13T08:08:58.662Z,100750.28
2023-01-13T08:12:23.356Z,100750.22
2023-01-13T08:15:27.382Z,100759.44
2023-01-13T08:18:32.066Z,100759.09
2023-01-13T08:21:34.164Z,100762.03
2023-01-13T08:24:36.573Z,100762.44
2023-01-13T08:27:38.788Z,100762.75
2023-01-13T08:30:41.754Z,100765.19
2023-01-13T08:33:44.352Z,100765.13
2023-01-13T08:36:49.687Z,100764.09
2023-01-13T08:39:51.807Z,100763.00
2023-01-13T08:42:57.008Z,100776.22
2023-01-13T08:46:03.897Z,100770.66
2023-01-13T08:49:06.344Z,100773.72
2023-01-13T08:52:08.812Z,100772.94
2023-01-13T08:55:11.545Z,100790.34
2023-01-13T08:58:16.038Z,100785.87
2023-01-13T09:01:22.483Z,100786.41
2023-01-13T09:04:27.572Z,100787.22
2023-01-13T09:07:33.852Z,100785.91
2023-01-13T09:10:36.760Z,100782.00
2023-01-13T09:13:39.677Z,100788.34
2023-01-13T09:16:41.821Z,100794.03
2023-01-13T09:19:44.537Z,100788.12
2023-01-13T09:22:46.753Z,100782.56
2023-01-13T09:25:49.363Z,100784.56
2023-01-13T09:28:51.476Z,100787.53
2023-01-13T09:31:53.840Z,100780.59
2023-01-13T09:35:01.953Z,100779.41
2023-01-13T09:38:04.426Z,100776.41
2023-01-13T09:41:26.550Z,100779.81
2023-01-13T09:44:57.794Z,100772.28
2023-01-13T09:48:09.611Z,100769.28
2023-01-13T09:51:28.017Z,100759.09
2023-01-13T09:54:41.111Z,100761.38
2023-01-13T09:57:43.959Z,100765.56
2023-01-13T10:00:58.184Z,100758.78
2023-01-13T10:04:12.063Z,100763.13
2023-01-13T10:07:16.987Z,100763.94
2023-01-13T10:10:32.180Z,100761.59
2023-01-13T10:13:35.387Z,100759.03
2023-01-13T10:16:56.480Z,100760.94
2023-01-13T10:20:07.422Z,100758.78
2023-01-13T10:23:45.702Z,100765.13
2023-01-13T10:27:10.350Z,100754.19
2023-01-13T10:30:20.352Z,100758.53
2023-01-13T10:33:28.347Z,100756.94
2023-01-13T10:36:30.800Z,100757.34
2023-01-13T10:39:41.777Z,100756.09
2023-01-13T10:42:44.359Z,100751.69
2023-01-13T10:46:12.594Z,100750.44
2023-01-13T10:49:32.890Z,100742.56
2023-01-13T10:52:39.295Z,100735.69
2023-01-13T10:55:41.864Z,100738.28
2023-01-13T10:58:44.003Z,100727.28
2023-01-13T11:02:13.001Z,100722.97
2023-01-13T11:05:25.851Z,100707.53
2023-01-13T11:08:43.089Z,100711.19
2023-01-13T11:11:47.421Z,100706.88
2023-01-13T11:14:50.952Z,100703.94
2023-01-13T11:18:01.600Z,100699.94
2023-01-13T11:21:09.368Z,100694.97
2023-01-13T11:24:30.285Z,100685.28
2023-01-13T11:28:27.082Z,100689.97
2023-01-13T11:31:46.271Z,100676.66
2023-01-13T11:34:54.043Z,100683.16
2023-01-13T11:38:04.260Z,100675.81
2023-01-13T11:41:28.968Z,100678.22
2023-01-13T11:44:41.027Z,100673.09
2023-01-13T11:47:47.111Z,100678.47
2023-01-13T11:50:56.324Z,100680.47
2023-01-13T11:54:26.541Z,100673.44
2023-01-13T11:57:52.226Z,100660.16
2023-01-13T12:01:23.255Z,100653.47
2023-01-13T12:05:02.553Z,100647.94
2023-01-13T12:08:26.072Z,100643.28
2023-01-13T12:12:01.655Z,100637.37
2023-01-13T12:15:20.964Z,100626.69
2023-01-13T12:19:00.748Z,100610.59
2023-01-13T12:22:08.661Z,100610.31
2023-01-13T12:25:37.399Z,100596.91
2023-01-13T12:28:56.211Z,100609.25
2023-01-13T12:32:02.054Z,100605.91
2023-01-13T12:35:16.721Z,100607.66
2023-01-13T12:38:34.501Z,100600.28
2023-01-13T12:42:03.807Z,100614.78
2023-01-13T12:45:11.892Z,100619.22
2023-01-13T12:48:32.516Z,100615.63
2023-01-13T12:51:57.587Z,100613.91
2023-01-13T12:55:03.275Z,100608.81
2023-01-13T12:58:05.607Z,100610.75
2023-01-13T13:01:13.143Z,100601.84
2023-01-13T13:04:18.678Z,100599.81
2023-01-13T13:07:32.702Z,100599.53
2023-01-13T13:10:40.210Z,100595.06
2023-01-13T13:13:46.935Z,100603.72
2023-01-13T13:16:52.874Z,100609.97
2023-01-13T13:19:56.643Z,100607.75
2023-01-13T13:22:59.036Z,100612.94
2023-01-13T13:26:07.211Z,100621.53
2023-01-13T13:29:12.282Z,100614.31
2023-01-13T13:32:19.251Z,100612.78
2023-01-13T13:35:51.997Z,100604.06
2023-01-13T13:39:33.317Z,100603.47
2023-01-13T13:43:13.343Z,100607.47
2023-01-13T13:46:46.839Z,100604.06
2023-01-13T13:49:56.371Z,100608.44
2023-01-13T13:53:05.777Z,100610.41
2023-01-13T13:56:21.730Z,100612.69
2023-01-13T13:59:26.827Z,100619.31
2023-01-13T14:02:36.861Z,100624.91
2023-01-13T14:05:39.305Z,100628.69
2023-01-13T14:08:49.097Z,100629.31
2023-01-13T14:12:03.590Z,100632.56
2023-01-13T14:15:05.984Z,100630.63
2023-01-13T14:18:15.535Z,100629.63
2023-01-13T14:21:25.399Z,100636.94
2023-01-13T14:24:28.082Z,100625.97
2023-01-13T14:27:30.668Z,100636.81
2023-01-13T14:30:33.704Z,100630.16
2023-01-13T14:33:38.839Z,100633.66
2023-01-13T14:36:50.927Z,100633.34
2023-01-13T14:39:56.124Z,100631.50
2023-01-13T14:43:12.148Z,100635.81
2023-01-13T14:46:14.767Z,100636.44
2023-01-13T14:49:31.972Z,100646.31
2023-01-13T14:52:37.335Z,100643.75
2023-01-13T14:55:41.337Z,100640.31
2023-01-13T14:58:43.428Z,100633.84
2023-01-13T15:01:45.902Z,100635.75
2023-01-13T15:04:48.186Z,100635.34
2023-01-13T15:07:55.873Z,100636.25
2023-01-13T15:11:00.828Z,100644.63
2023-01-13T15:14:10.366Z,100643.34
2023-01-13T15:17:17.568Z,100640.63
2023-01-13T15:20:22.656Z,100629.44
2023-01-13T15:23:24.777Z,100629.25
2023-01-13T15:26:29.680Z,100629.47
2023-01-13T15:29:31.821Z,100626.47
2023-01-13T15:32:34.219Z,100633.47
2023-01-13T15:35:37.715Z,100635.94
2023-01-13T15:38:40.121Z,100643.87
2023-01-13T15:42:00.723Z,100645.34
2023-01-13T15:45:21.930Z,100640.91
2023-01-13T15:48:30.633Z,100638.38
2023-01-13T15:51:33.034Z,100639.50
2023-01-13T15:54:35.136Z,100642.97
2023-01-13T15:57:41.913Z,100656.09
2023-01-13T16:00:44.080Z,100655.62
2023-01-13T16:03:46.583Z,100653.25
2023-01-13T16:06:49.045Z,100664.56
2023-01-13T16:09:52.105Z,100655.13
